Time;durP1;ratioP1;P1;durP2;ratioP2;P2;SDS_P1;SDS_P2;PMS_P1;PMS_P2;Temp;Humidity;BMP_temperature;BMP_pressure;BME280_temperature;BME280_humidity;BME280_pressure;Samples;Min_cycle;Max_cycle;Signal;HPM_P1;HPM_P2
2021/10/07 00:01:18;;;;;;;11.68;3.62;;;;;;;6.22;49.57;102473.42;1729141;81;21860;-58
2021/10/07 00:03:44;;;;;;;9.18;3.98;;;;;;;6.20;49.94;102471.30;1728237;80;22320;-58
2021/10/07 00:06:11;;;;;;;11.90;4.15;;;;;;;6.18;49.83;102473.11;1702787;81;21116;-58
2021/10/07 00:08:37;;;;;;;7.60;3.60;;;;;;;6.16;49.52;102475.77;1746316;79;21058;-58
2021/10/07 00:11:04;;;;;;;11.00;3.95;;;;;;;6.15;49.66;102472.73;1755654;79;21657;-58
2021/10/07 00:13:31;;;;;;;9.30;3.87;;;;;;;6.13;49.71;102476.69;1757868;79;21137;-58
2021/10/07 00:15:58;;;;;;;8.70;4.20;;;;;;;6.13;49.41;102470.63;1731976;79;21217;-58
2021/10/07 00:18:25;;;;;;;9.00;4.05;;;;;;;6.15;49.55;102481.88;1758580;79;21047;-58
2021/10/07 00:20:51;;;;;;;8.15;3.85;;;;;;;6.14;49.76;102476.27;1756462;79;21079;-59
2021/10/07 00:23:23;;;;;;;8.28;3.80;;;;;;;6.12;50.20;102478.08;1756311;79;21062;-58
2021/10/07 00:25:46;;;;;;;8.28;4.35;;;;;;;6.08;50.28;102480.34;1755586;79;21066;-58
2021/10/07 00:28:12;;;;;;;7.58;3.70;;;;;;;6.05;51.01;102477.38;1754361;79;21207;-58
2021/10/07 00:30:41;;;;;;;9.30;4.33;;;;;;;6.04;51.89;102488.73;1756770;79;20998;-59
2021/10/07 00:33:11;;;;;;;8.03;4.15;;;;;;;6.04;52.21;102483.50;1755976;79;21051;-58
2021/10/07 00:40:48;;;;;;;8.55;4.12;;;;;;;5.99;51.43;102493.22;1740250;79;21109;-57
2021/10/07 00:43:14;;;;;;;11.90;4.12;;;;;;;5.92;51.24;102491.19;1757908;79;21051;-57
2021/10/07 00:45:40;;;;;;;9.33;4.03;;;;;;;5.88;51.36;102499.14;1755118;79;21043;-57
2021/10/07 00:48:07;;;;;;;10.38;4.15;;;;;;;5.85;51.06;102490.07;1755586;79;21050;-56
2021/10/07 00:50:33;;;;;;;11.08;3.98;;;;;;;5.84;51.06;102494.91;1739691;79;21177;-56
2021/10/07 00:53:00;;;;;;;9.98;4.30;;;;;;;5.82;51.16;102492.80;1695975;82;21230;-56
2021/10/07 00:55:26;;;;;;;6.75;3.67;;;;;;;5.77;51.29;102496.36;1759197;79;21717;-57
2021/10/07 00:57:53;;;;;;;8.00;3.83;;;;;;;5.73;51.37;102498.66;1753399;79;21111;-57
2021/10/07 01:00:19;;;;;;;7.87;3.55;;;;;;;5.71;51.09;102494.36;1758102;79;21558;-57
2021/10/07 01:02:45;;;;;;;15.83;3.92;;;;;;;5.69;51.05;102497.01;1742413;79;21118;-57
2021/10/07 01:05:12;;;;;;;11.55;3.75;;;;;;;5.67;50.99;102498.81;1741337;79;21229;-58
2021/10/07 01:07:39;;;;;;;10.28;3.58;;;;;;;5.63;51.04;102508.06;1755087;79;21086;-58
2021/10/07 01:10:06;;;;;;;10.35;3.67;;;;;;;5.62;50.93;102502.45;1759264;79;22101;-58
2021/10/07 01:12:33;;;;;;;6.95;3.30;;;;;;;5.59;51.28;102511.20;1756685;79;21118;-56
2021/10/07 01:14:59;;;;;;;7.90;3.45;;;;;;;5.58;51.42;102517.31;1753446;79;21070;-56
2021/10/07 01:17:28;;;;;;;8.93;3.75;;;;;;;5.53;51.18;102510.92;1754819;79;22118;-56
2021/10/07 01:19:58;;;;;;;7.58;3.05;;;;;;;5.50;51.56;102514.91;1761212;79;21420;-56
2021/10/07 01:22:26;;;;;;;8.05;3.60;;;;;;;5.49;51.67;102512.33;1754407;79;21409;-57
2021/10/07 01:24:53;;;;;;;6.85;3.52;;;;;;;5.47;51.62;102514.97;1756985;79;21146;-57
2021/10/07 01:27:25;;;;;;;7.65;3.30;;;;;;;5.46;51.60;102515.86;1754941;79;21047;-57
2021/10/07 01:29:56;;;;;;;7.12;3.40;;;;;;;5.46;51.76;102518.92;1738084;79;21224;-57
2021/10/07 01:32:25;;;;;;;8.73;3.92;;;;;;;5.46;51.76;102521.53;1754976;79;21596;-57
2021/10/07 01:34:51;;;;;;;8.75;3.98;;;;;;;5.43;51.76;102524.22;1734232;80;21034;-58
2021/10/07 01:37:18;;;;;;;6.45;3.27;;;;;;;5.40;51.97;102526.02;1754776;79;21540;-57
2021/10/07 01:39:44;;;;;;;8.18;3.20;;;;;;;5.38;51.84;102526.97;1739096;79;21126;-57
2021/10/07 01:42:10;;;;;;;7.05;3.15;;;;;;;5.37;52.14;102533.06;1756569;79;22129;-57
2021/10/07 01:44:37;;;;;;;9.70;4.03;;;;;;;5.35;51.98;102534.86;1739686;80;21443;-57
2021/10/07 01:47:03;;;;;;;9.55;2.90;;;;;;;5.31;51.79;102535.39;1755956;79;21078;-57
2021/10/07 01:49:30;;;;;;;8.25;3.83;;;;;;;5.30;51.79;102534.11;1740261;79;21564;-57
2021/10/07 01:51:56;;;;;;;7.47;3.22;;;;;;;5.29;51.65;102537.16;1753647;79;21368;-57
2021/10/07 01:54:23;;;;;;;6.67;3.52;;;;;;;5.26;51.39;102541.16;1757639;79;21137;-57
2021/10/07 01:56:49;;;;;;;6.40;2.65;;;;;;;5.25;51.67;102545.11;1755746;79;21153;-57
2021/10/07 01:59:16;;;;;;;7.47;3.10;;;;;;;5.22;51.86;102548.64;1736453;79;22378;-57
2021/10/07 02:01:42;;;;;;;6.83;3.10;;;;;;;5.21;51.78;102542.99;1755158;79;21066;-57
2021/10/07 02:04:08;;;;;;;6.55;3.45;;;;;;;5.23;51.98;102548.17;1758112;79;20991;-56
2021/10/07 02:06:36;;;;;;;10.35;2.90;;;;;;;5.20;51.83;102550.43;1754917;79;21154;-56
2021/10/07 02:09:04;;;;;;;7.30;3.30;;;;;;;5.19;51.95;102548.27;1762539;78;21049;-57
2021/10/07 02:11:32;;;;;;;6.92;2.90;;;;;;;5.17;51.83;102554.41;1770271;78;20979;-57
2021/10/07 02:14:00;;;;;;;7.37;3.30;;;;;;;5.15;51.71;102549.67;1771172;78;21141;-57
2021/10/07 02:16:34;;;;;;;7.85;3.25;;;;;;;5.13;51.92;102548.86;1747666;79;21085;-56
2021/10/07 02:19:00;;;;;;;10.15;3.42;;;;;;;5.13;51.95;102541.87;1769904;78;21832;-56
2021/10/07 02:21:27;;;;;;;5.37;2.52;;;;;;;5.11;52.00;102542.79;1767480;78;21030;-56
2021/10/07 02:23:54;;;;;;;6.90;3.15;;;;;;;5.11;52.09;102546.70;1767619;78;21058;-57
2021/10/07 02:26:20;;;;;;;6.70;3.22;;;;;;;5.10;51.86;102552.84;1769639;78;21050;-56
2021/10/07 02:28:47;;;;;;;6.20;2.85;;;;;;;5.06;51.81;102552.47;1749200;78;21066;-58
2021/10/07 02:31:13;;;;;;;5.72;2.45;;;;;;;5.03;51.94;102549.50;1768385;78;21142;-57
2021/10/07 02:33:39;;;;;;;6.35;3.02;;;;;;;5.03;52.26;102556.88;1770977;78;21046;-58
2021/10/07 02:36:06;;;;;;;7.08;3.22;;;;;;;5.01;52.22;102558.67;1768848;78;21462;-58
2021/10/07 02:38:32;;;;;;;7.45;2.87;;;;;;;5.00;52.44;102553.48;1770210;78;21091;-58
2021/10/07 02:40:59;;;;;;;6.28;2.90;;;;;;;4.97;52.41;102559.61;1769648;78;21105;-57
2021/10/07 02:43:25;;;;;;;5.53;3.00;;;;;;;4.96;52.06;102557.91;1769449;78;21289;-57
2021/10/07 02:45:53;;;;;;;5.45;2.45;;;;;;;4.96;52.11;102561.83;1749923;78;21086;-58
2021/10/07 02:48:20;;;;;;;7.00;3.10;;;;;;;4.95;52.10;102561.40;1770069;78;20983;-58
2021/10/07 02:50:46;;;;;;;5.50;2.37;;;;;;;4.94;52.21;102564.92;1706043;82;21095;-57
2021/10/07 02:53:12;;;;;;;7.62;3.25;;;;;;;4.93;52.15;102559.73;1733324;80;21085;-58
2021/10/07 02:55:39;;;;;;;6.53;3.17;;;;;;;4.93;52.33;102567.11;1731230;82;21216;-58
2021/10/07 02:58:05;;;;;;;6.47;3.30;;;;;;;4.92;52.15;102558.85;1713053;81;21037;-57
2021/10/07 03:00:32;;;;;;;6.75;3.27;;;;;;;4.91;52.33;102560.19;1734924;80;21062;-58
2021/10/07 03:02:59;;;;;;;6.78;3.20;;;;;;;4.89;52.35;102566.73;1702858;82;21091;-57
2021/10/07 03:05:25;;;;;;;8.35;2.95;;;;;;;4.88;52.61;102570.26;1697504;82;21127;-58
2021/10/07 03:07:51;;;;;;;8.20;2.65;;;;;;;4.87;52.62;102573.75;1700187;82;21236;-58
2021/10/07 03:10:20;;;;;;;7.45;3.20;;;;;;;4.84;52.77;102579.02;1661134;82;21503;-58
2021/10/07 03:12:48;;;;;;;9.73;3.58;;;;;;;4.84;52.74;102579.02;1662107;82;21973;-57
2021/10/07 03:15:15;;;;;;;6.25;2.98;;;;;;;4.84;52.58;102578.59;1689729;82;21388;-57
2021/10/07 03:17:41;;;;;;;8.43;3.00;;;;;;;4.85;52.70;102584.66;1663079;82;21576;-59
2021/10/07 03:20:09;;;;;;;5.67;2.67;;;;;;;4.84;52.56;102581.63;1700364;82;21163;-57
2021/10/07 03:22:37;;;;;;;8.23;3.42;;;;;;;4.84;52.56;102577.72;1700149;82;21568;-56
2021/10/07 03:25:04;;;;;;;9.20;3.30;;;;;;;4.82;52.53;102578.20;1680949;83;21073;-56
2021/10/07 03:27:31;;;;;;;6.60;2.85;;;;;;;4.80;52.79;102578.23;1681445;82;22476;-57
2021/10/07 03:29:57;;;;;;;6.67;2.62;;;;;;;4.81;52.62;102578.66;1677806;83;21031;-57
2021/10/07 03:32:24;;;;;;;6.65;3.00;;;;;;;4.79;52.57;102576.53;1747210;79;21272;-57
2021/10/07 03:34:50;;;;;;;8.30;3.15;;;;;;;4.79;52.68;102581.75;1719499;81;21135;-57
2021/10/07 03:37:16;;;;;;;8.30;2.95;;;;;;;4.78;52.45;102583.08;1725932;79;21067;-57
2021/10/07 03:39:43;;;;;;;6.20;3.02;;;;;;;4.77;52.63;102582.66;1750773;79;21079;-57
2021/10/07 03:42:09;;;;;;;6.75;3.00;;;;;;;4.74;52.59;102577.08;1750850;79;21062;-57
2021/10/07 03:44:36;;;;;;;12.85;3.85;;;;;;;4.73;52.80;102587.53;1746790;79;21106;-57
2021/10/07 03:47:03;;;;;;;7.10;3.10;;;;;;;4.71;52.77;102581.47;1745273;79;21561;-56
2021/10/07 03:49:30;;;;;;;7.47;3.10;;;;;;;4.68;52.65;102582.41;1751495;79;21042;-56
2021/10/07 03:51:56;;;;;;;7.90;3.80;;;;;;;4.67;52.63;102576.77;1749328;79;21072;-56
2021/10/07 03:54:22;;;;;;;7.80;3.50;;;;;;;4.66;52.71;102585.49;1724851;79;22271;-56
2021/10/07 03:56:49;;;;;;;7.87;3.80;;;;;;;4.65;52.96;102585.91;1752319;79;21793;-56
2021/10/07 03:59:16;;;;;;;8.45;2.90;;;;;;;4.64;53.06;102585.52;1725908;79;21500;-56
2021/10/07 04:01:44;;;;;;;6.45;2.77;;;;;;;4.64;53.27;102588.12;1749176;79;20991;-56
2021/10/07 04:04:10;;;;;;;10.08;3.47;;;;;;;4.62;53.08;102589.03;1750244;79;22531;-56
2021/10/07 04:06:37;;;;;;;7.95;3.12;;;;;;;4.60;53.17;102589.06;1746120;79;21051;-57
2021/10/07 04:09:03;;;;;;;7.22;3.12;;;;;;;4.59;53.29;102593.88;1746460;79;21203;-56
2021/10/07 04:11:30;;;;;;;8.33;3.40;;;;;;;4.54;53.27;102587.90;1746828;79;21047;-56
2021/10/07 04:13:56;;;;;;;8.45;2.55;;;;;;;4.52;53.09;102584.44;1746243;79;21182;-56
2021/10/07 04:16:22;;;;;;;9.15;3.27;;;;;;;4.50;53.36;102584.92;1747329;79;21102;-57
2021/10/07 04:18:49;;;;;;;7.47;3.08;;;;;;;4.50;53.36;102590.13;1747081;79;21105;-57
2021/10/07 04:21:17;;;;;;;9.10;3.83;;;;;;;4.52;53.56;102591.41;1748164;79;21176;-57
2021/10/07 04:23:44;;;;;;;7.20;3.02;;;;;;;4.53;53.52;102593.99;1749864;79;21128;-56
2021/10/07 04:26:12;;;;;;;7.45;3.50;;;;;;;4.55;53.53;102593.96;1748450;79;21107;-56
2021/10/07 04:28:39;;;;;;;9.70;3.40;;;;;;;4.55;53.95;102594.81;1723450;81;21054;-57
2021/10/07 04:31:05;;;;;;;6.90;3.27;;;;;;;4.59;53.56;102602.13;1747659;79;21082;-57
2021/10/07 04:33:32;;;;;;;8.15;3.17;;;;;;;4.61;53.21;102602.53;1749051;79;21157;-57
2021/10/07 04:35:58;;;;;;;7.10;3.40;;;;;;;4.64;53.09;102603.77;1747753;79;21075;-55
2021/10/07 04:38:25;;;;;;;8.78;2.70;;;;;;;4.68;53.25;102611.09;1748893;79;21082;-56
2021/10/07 04:40:51;;;;;;;6.12;2.90;;;;;;;4.67;53.18;102613.27;1723903;80;21785;-57
2021/10/07 04:43:18;;;;;;;12.88;3.65;;;;;;;4.65;53.23;102610.69;1722884;79;21070;-58
2021/10/07 04:45:45;;;;;;;6.60;2.98;;;;;;;4.64;53.29;102607.69;1722083;79;21055;-58
2021/10/07 04:48:12;;;;;;;5.80;2.52;;;;;;;4.63;53.21;102612.48;1724778;79;21058;-57
2021/10/07 04:50:39;;;;;;;8.83;3.70;;;;;;;4.64;53.33;102615.97;1747525;79;21107;-57
2021/10/07 04:53:06;;;;;;;8.73;3.00;;;;;;;4.67;53.38;102612.42;1725457;79;21106;-58
2021/10/07 04:55:32;;;;;;;7.85;3.42;;;;;;;4.71;53.35;102615.38;1751444;79;21634;-58
2021/10/07 04:57:59;;;;;;;5.87;2.90;;;;;;;4.72;53.49;102613.19;1750833;79;21154;-59
2021/10/07 05:00:25;;;;;;;11.90;3.50;;;;;;;4.74;53.48;102614.89;1750924;79;21070;-58
2021/10/07 05:02:51;;;;;;;6.85;2.72;;;;;;;4.76;53.27;102610.95;1748738;79;21063;-58
2021/10/07 05:05:18;;;;;;;6.92;3.02;;;;;;;4.80;52.99;102623.03;1750278;79;21075;-58
2021/10/07 05:07:45;;;;;;;8.78;3.22;;;;;;;4.82;52.95;102620.82;1749251;79;21085;-57
2021/10/07 05:10:12;;;;;;;10.50;2.87;;;;;;;4.87;53.11;102622.46;1754595;79;21123;-57
2021/10/07 05:12:39;;;;;;;7.75;2.47;;;;;;;4.86;53.28;102617.70;1757125;79;21999;-59
2021/10/07 05:15:08;;;;;;;10.18;3.52;;;;;;;4.91;53.50;102618.46;1755863;79;21023;-58
2021/10/07 05:17:36;;;;;;;13.60;3.40;;;;;;;4.97;53.87;102629.20;1736400;80;22083;-58
2021/10/07 05:20:07;;;;;;;8.48;3.12;;;;;;;5.00;53.83;102630.00;1756056;79;21074;-59
2021/10/07 05:22:34;;;;;;;7.87;3.05;;;;;;;5.02;53.54;102626.91;1738113;79;22018;-58
2021/10/07 05:25:00;;;;;;;6.42;2.95;;;;;;;5.08;53.80;102623.33;1759194;79;21055;-56
2021/10/07 05:27:27;;;;;;;7.87;3.12;;;;;;;5.14;53.62;102630.16;1736164;80;21039;-60
2021/10/07 05:29:55;;;;;;;8.55;3.60;;;;;;;5.18;53.32;102628.77;1754709;79;21110;-60
2021/10/07 05:32:21;;;;;;;12.03;3.08;;;;;;;5.25;52.93;102636.47;1757683;79;21090;-58
2021/10/07 05:34:47;;;;;;;5.55;2.75;;;;;;;5.28;52.63;102641.59;1742621;79;21098;-58
2021/10/07 05:37:14;;;;;;;6.70;2.72;;;;;;;5.30;52.29;102639.39;1735255;80;21055;-56
2021/10/07 05:39:41;;;;;;;7.47;2.70;;;;;;;5.33;52.32;102636.71;1755425;79;21130;-57
2021/10/07 05:42:08;;;;;;;6.72;2.47;;;;;;;5.38;52.15;102644.45;1738438;79;21615;-57
2021/10/07 05:44:34;;;;;;;8.25;2.87;;;;;;;5.38;52.36;102640.08;1739499;80;21563;-57
2021/10/07 05:47:01;;;;;;;7.12;2.75;;;;;;;5.43;52.06;102648.24;1739175;80;22336;-57
2021/10/07 05:49:27;;;;;;;8.53;2.77;;;;;;;5.48;51.95;102650.30;1756237;79;21361;-58
2021/10/07 05:51:55;;;;;;;6.47;3.25;;;;;;;5.50;51.96;102645.47;1735653;79;21110;-57
2021/10/07 05:54:22;;;;;;;5.42;2.22;;;;;;;5.53;51.62;102644.53;1731375;79;21026;-57
2021/10/07 05:56:49;;;;;;;7.00;2.92;;;;;;;5.58;51.72;102646.59;1752667;79;21075;-56
2021/10/07 05:59:15;;;;;;;7.97;2.85;;;;;;;5.64;51.54;102656.05;1755002;79;21090;-56
2021/10/07 06:01:41;;;;;;;7.45;2.83;;;;;;;5.68;51.52;102654.66;1755405;79;21094;-56
2021/10/07 06:04:08;;;;;;;8.05;2.87;;;;;;;5.73;51.94;102654.09;1755304;79;21754;-57
2021/10/07 06:06:35;;;;;;;8.08;2.87;;;;;;;5.80;51.64;102657.84;1757631;79;21039;-56
2021/10/07 06:09:03;;;;;;;8.55;3.17;;;;;;;5.84;51.30;102658.20;1756741;79;21585;-56
2021/10/07 06:11:29;;;;;;;9.15;3.42;;;;;;;5.90;50.78;102663.27;1746003;78;22272;-56
2021/10/07 06:13:55;;;;;;;11.05;2.85;;;;;;;5.94;50.21;102662.31;1769346;78;21128;-56
2021/10/07 06:16:23;;;;;;;12.40;3.08;;;;;;;5.97;50.00;102670.55;1770311;78;21066;-59
2021/10/07 06:18:50;;;;;;;7.60;3.35;;;;;;;6.01;50.40;102667.83;1770950;78;21539;-57
2021/10/07 06:21:17;;;;;;;6.30;3.00;;;;;;;6.04;50.27;102665.60;1767601;78;22418;-57
2021/10/07 06:23:43;;;;;;;6.50;2.83;;;;;;;6.09;50.50;102668.50;1766723;78;21087;-61
2021/10/07 06:26:10;;;;;;;8.25;3.40;;;;;;;6.14;50.07;102666.63;1768004;78;21787;-58
2021/10/07 06:28:36;;;;;;;7.28;2.60;;;;;;;6.18;50.14;102671.33;1767680;78;21038;-57
2021/10/07 06:31:03;;;;;;;8.38;3.25;;;;;;;6.21;49.95;102660.80;1768199;78;21067;-58
2021/10/07 06:33:31;;;;;;;6.60;3.10;;;;;;;6.27;50.09;102657.16;1768888;78;21053;-56
2021/10/07 06:35:58;;;;;;;7.67;2.37;;;;;;;6.32;49.86;102663.13;1766244;78;22004;-57
2021/10/07 06:38:28;;;;;;;17.92;3.42;;;;;;;6.36;49.72;102670.47;1766341;78;21036;-56
2021/10/07 06:40:54;;;;;;;8.48;3.02;;;;;;;6.38;49.82;102668.67;1766119;78;21089;-56
2021/10/07 06:43:20;;;;;;;6.33;2.87;;;;;;;6.41;49.52;102666.83;1765960;78;21082;-57
2021/10/07 06:45:47;;;;;;;13.60;3.02;;;;;;;6.44;49.23;102671.98;1765625;78;21086;-57
2021/10/07 06:48:13;;;;;;;6.95;3.12;;;;;;;6.49;49.50;102673.18;1746454;80;21913;-57
2021/10/07 06:50:42;;;;;;;8.93;3.60;;;;;;;6.54;49.57;102673.92;1765530;78;21089;-58
2021/10/07 06:53:10;;;;;;;7.78;3.40;;;;;;;6.61;49.32;102668.92;1764420;78;21387;-57
2021/10/07 06:55:38;;;;;;;7.42;2.90;;;;;;;6.68;48.94;102663.92;1754725;78;21101;-57
2021/10/07 06:58:06;;;;;;;6.80;3.20;;;;;;;6.77;49.12;102668.50;1768667;78;21035;-57
2021/10/07 07:00:32;;;;;;;8.20;3.45;;;;;;;6.86;49.19;102666.49;1770243;78;21120;-57
2021/10/07 07:02:59;;;;;;;7.42;3.30;;;;;;;6.95;49.04;102671.06;1770365;78;21589;-58
2021/10/07 07:05:26;;;;;;;8.95;3.22;;;;;;;7.03;49.59;102674.33;1768049;78;20991;-57
2021/10/07 07:07:53;;;;;;;6.20;2.85;;;;;;;7.10;48.75;102674.55;1769593;78;21066;-57
2021/10/07 07:10:19;;;;;;;7.20;2.83;;;;;;;7.16;47.98;102663.91;1739286;78;20998;-57
2021/10/07 07:12:48;;;;;;;9.30;2.72;;;;;;;7.22;47.77;102671.56;1763328;78;21657;-57
2021/10/07 07:15:17;;;;;;;7.87;2.45;;;;;;;7.28;47.24;102676.22;1765783;78;22289;-57
2021/10/07 07:17:44;;;;;;;6.87;2.75;;;;;;;7.32;47.26;102673.93;1766233;78;21069;-56
2021/10/07 07:20:11;;;;;;;5.92;2.40;;;;;;;7.37;47.07;102674.65;1766576;78;21030;-57
2021/10/07 07:22:38;;;;;;;7.97;3.35;;;;;;;7.44;47.52;102676.17;1741255;78;21067;-57
2021/10/07 07:25:07;;;;;;;8.25;2.42;;;;;;;7.50;47.46;102676.00;1763593;78;21222;-56
2021/10/07 07:27:34;;;;;;;5.78;2.65;;;;;;;7.58;47.62;102670.08;1767153;78;21078;-58
2021/10/07 07:30:04;;;;;;;9.13;2.90;;;;;;;7.66;47.47;102676.83;1766166;78;21087;-56
2021/10/07 07:32:31;;;;;;;6.33;2.35;;;;;;;7.74;46.84;102676.99;1763611;78;21327;-57
2021/10/07 07:34:57;;;;;;;9.98;2.98;;;;;;;7.79;46.26;102677.70;1765826;78;21091;-57
2021/10/07 07:37:23;;;;;;;6.25;2.17;;;;;;;7.84;45.93;102675.41;1764635;78;21129;-58
2021/10/07 07:39:50;;;;;;;8.13;3.42;;;;;;;7.88;45.94;102673.92;1739418;78;22360;-56
2021/10/07 07:42:16;;;;;;;8.00;3.10;;;;;;;7.94;45.76;102672.42;1761859;79;21131;-56
2021/10/07 07:44:42;;;;;;;7.08;2.90;;;;;;;8.00;45.80;102680.10;1741513;78;21927;-56
2021/10/07 07:47:09;;;;;;;6.33;2.55;;;;;;;8.06;45.66;102676.41;1740810;78;21066;-56
2021/10/07 07:49:37;;;;;;;8.03;2.87;;;;;;;8.11;46.04;102673.18;1766451;78;21676;-57
2021/10/07 07:52:04;;;;;;;5.92;2.40;;;;;;;8.21;46.23;102676.83;1678638;82;21382;-57
2021/10/07 07:54:31;;;;;;;5.72;2.58;;;;;;;8.29;46.05;102683.98;1766499;78;21092;-58
2021/10/07 07:56:58;;;;;;;12.68;2.92;;;;;;;8.37;45.88;102677.56;1766282;78;21857;-57
2021/10/07 07:59:24;;;;;;;6.50;2.35;;;;;;;8.45;45.69;102677.78;1766087;78;21058;-56
2021/10/07 08:01:51;;;;;;;8.15;2.55;;;;;;;8.53;45.06;102675.75;1738082;78;21159;-57
2021/10/07 08:04:17;;;;;;;10.20;2.77;;;;;;;8.60;44.70;102679.87;1734988;80;21825;-57
2021/10/07 08:06:44;;;;;;;6.28;2.17;;;;;;;8.69;44.81;102672.12;1765860;78;21031;-57
2021/10/07 08:09:11;;;;;;;4.85;2.30;;;;;;;8.76;44.39;102672.33;1767421;78;20983;-57
2021/10/07 08:11:39;;;;;;;5.65;2.15;;;;;;;8.82;43.96;102665.98;1763722;78;21030;-56
2021/10/07 08:14:09;;;;;;;6.75;2.42;;;;;;;8.87;43.98;102661.42;1764273;79;21105;-58
2021/10/07 08:16:36;;;;;;;7.22;2.42;;;;;;;8.94;43.84;102660.28;1738067;79;21575;-56
2021/10/07 08:19:03;;;;;;;8.75;2.72;;;;;;;9.02;43.38;102667.42;1731832;79;21074;-57
2021/10/07 08:21:30;;;;;;;7.12;2.80;;;;;;;9.12;43.17;102665.31;1762797;79;21098;-56
2021/10/07 08:23:57;;;;;;;5.85;2.20;;;;;;;9.19;42.97;102664.63;1762509;79;21418;-56
2021/10/07 08:26:24;;;;;;;8.43;2.37;;;;;;;9.24;43.16;102659.59;1737446;79;22369;-56
2021/10/07 08:28:50;;;;;;;4.35;1.70;;;;;;;9.33;42.98;102654.91;1762331;79;21086;-56
2021/10/07 08:31:16;;;;;;;7.05;2.05;;;;;;;9.39;42.40;102652.05;1762677;79;21046;-57
2021/10/07 08:33:43;;;;;;;5.75;1.80;;;;;;;9.44;41.84;102647.47;1763823;79;21149;-60
2021/10/07 08:36:10;;;;;;;7.50;1.80;;;;;;;9.48;41.62;102642.04;1762346;79;21078;-59
2021/10/07 08:38:36;;;;;;;7.35;2.27;;;;;;;9.54;41.41;102642.24;1734240;79;21234;-58
2021/10/07 08:41:03;;;;;;;4.30;1.47;;;;;;;9.63;41.40;102648.91;1763476;79;21063;-57
2021/10/07 08:43:31;;;;;;;6.80;1.57;;;;;;;9.72;40.97;102643.30;1763727;79;21075;-57
2021/10/07 08:45:58;;;;;;;4.08;1.32;;;;;;;9.77;41.17;102637.39;1740228;79;21094;-60
2021/10/07 08:48:24;;;;;;;5.45;1.80;;;;;;;9.83;40.54;102638.46;1763684;79;21159;-56
2021/10/07 08:50:50;;;;;;;5.25;1.60;;;;;;;9.92;39.53;102634.59;1763089;79;22403;-57
2021/10/07 08:53:17;;;;;;;3.70;1.50;;;;;;;9.95;39.74;102639.73;1737847;79;22311;-58
2021/10/07 08:55:44;;;;;;;5.58;1.90;;;;;;;10.02;39.60;102631.13;1739580;79;21387;-57
2021/10/07 08:58:12;;;;;;;4.30;1.27;;;;;;;10.11;39.34;102633.36;1735405;79;21007;-56
2021/10/07 09:00:39;;;;;;;6.22;1.27;;;;;;;10.21;39.30;102633.36;1749573;79;21062;-56
2021/10/07 09:03:19;;;;;;;3.87;1.50;;;;;;;10.28;38.73;102631.31;1764187;79;21101;-57
2021/10/07 09:05:46;;;;;;;4.85;1.65;;;;;;;10.36;39.26;102631.03;1765583;79;21659;-59
2021/10/07 09:08:16;;;;;;;5.42;1.72;;;;;;;10.47;39.60;102631.88;1726880;79;21073;-57
2021/10/07 09:10:48;;;;;;;4.40;1.80;;;;;;;10.54;39.23;102618.83;1761092;79;21105;-60
2021/10/07 09:13:22;;;;;;;6.10;1.42;;;;;;;10.64;39.48;102617.96;1754776;79;21094;-61
2021/10/07 09:15:56;;;;;;;6.62;2.02;;;;;;;10.74;39.70;102613.98;1739016;79;22454;-57
2021/10/07 09:18:23;;;;;;;6.05;2.10;;;;;;;10.84;38.83;102611.80;1737694;79;21064;-57
2021/10/07 09:20:52;;;;;;;5.20;2.02;;;;;;;10.92;38.60;102610.98;1738743;80;21112;-58
2021/10/07 09:23:30;;;;;;;6.67;2.27;;;;;;;10.99;38.74;102610.25;1754781;79;21059;-59
2021/10/07 09:26:05;;;;;;;6.58;1.80;;;;;;;11.06;38.68;102598.05;1756894;79;21019;-60
2021/10/07 09:28:57;;;;;;;7.03;1.62;;;;;;;11.16;39.21;102606.34;1757039;79;21096;-59
2021/10/07 09:31:30;;;;;;;5.53;2.22;;;;;;;11.26;38.78;102593.59;1753314;79;21067;-59
2021/10/07 09:34:01;;;;;;;5.72;1.50;;;;;;;11.36;38.03;102592.23;1755861;79;21063;-58
2021/10/07 09:36:29;;;;;;;3.85;1.32;;;;;;;11.45;38.48;102593.59;1754752;79;21026;-57
2021/10/07 09:38:55;;;;;;;4.62;1.60;;;;;;;11.53;37.29;102587.01;1757058;79;20979;-58
2021/10/07 09:41:25;;;;;;;4.55;1.62;;;;;;;11.63;36.90;102585.22;1755897;79;22092;-58
2021/10/07 09:44:01;;;;;;;5.83;1.85;;;;;;;11.73;37.30;102582.98;1756658;79;20991;-58
2021/10/07 09:46:46;;;;;;;4.30;1.52;;;;;;;11.84;37.42;102589.91;1757679;79;21481;-58
2021/10/07 09:49:18;;;;;;;3.40;1.27;;;;;;;11.97;36.76;102596.75;1735797;79;21727;-58
2021/10/07 09:51:52;;;;;;;4.47;1.47;;;;;;;12.06;36.17;102593.19;1755657;79;21050;-59
2021/10/07 09:54:20;;;;;;;4.15;1.52;;;;;;;12.16;34.96;102592.25;1755910;79;21578;-59
2021/10/07 09:56:58;;;;;;;5.62;1.80;;;;;;;12.24;34.37;102589.23;1703217;81;21564;-58
2021/10/07 09:59:26;;;;;;;9.35;2.10;;;;;;;12.29;33.99;102584.56;1757098;79;21055;-60
2021/10/07 10:01:55;;;;;;;2.42;0.75;;;;;;;12.34;35.08;102577.70;1739210;79;21074;-57
2021/10/07 10:04:23;;;;;;;3.22;0.95;;;;;;;12.41;34.88;102572.03;1735194;79;21035;-58
2021/10/07 10:06:49;;;;;;;2.62;0.82;;;;;;;12.51;34.78;102575.48;1735223;79;21890;-60
2021/10/07 10:09:15;;;;;;;8.58;1.60;;;;;;;12.62;34.65;102580.61;1757033;79;21438;-58
2021/10/07 10:11:42;;;;;;;3.90;1.30;;;;;;;12.69;33.77;102566.57;1754280;79;21082;-59
2021/10/07 10:14:10;;;;;;;5.62;1.55;;;;;;;12.74;33.88;102576.45;1756206;79;21106;-58
2021/10/07 10:16:38;;;;;;;3.90;1.30;;;;;;;12.77;33.58;102569.66;1756785;79;21682;-58
2021/10/07 10:19:04;;;;;;;6.28;1.45;;;;;;;12.79;33.62;102563.84;1758537;79;21145;-58
2021/10/07 10:21:37;;;;;;;4.15;1.47;;;;;;;12.84;33.35;102566.20;1755085;79;21075;-58
2021/10/07 10:26:22;;;;;;;4.22;1.12;;;;;;;12.94;33.02;102557.31;1789879;77;22514;-54
2021/10/07 10:28:52;;;;;;;3.95;1.22;;;;;;;12.94;32.86;102559.47;1767020;78;21602;-55
2021/10/07 10:31:28;;;;;;;3.98;1.25;;;;;;;12.99;33.91;102556.59;1767620;78;21145;-54
2021/10/07 10:34:11;;;;;;;3.70;1.17;;;;;;;13.07;32.83;102557.49;1768363;78;22594;-54
2021/10/07 10:36:57;;;;;;;4.55;1.42;;;;;;;13.12;32.41;102549.67;1762931;78;21188;-54
2021/10/07 10:39:26;;;;;;;;;;;;;;;13.14;32.07;102550.91;1771414;78;21037;-54
2021/10/07 10:42:03;;;;;;;4.78;1.25;;;;;;;13.13;32.31;102544.78;1771304;78;20288;-54
2021/10/07 10:44:48;;;;;;;8.38;1.40;;;;;;;13.15;33.33;102549.98;1740645;78;21125;-56
2021/10/07 10:47:18;;;;;;;5.40;1.70;;;;;;;13.25;33.30;102537.95;1768436;78;21658;-56
2021/10/07 10:49:53;;;;;;;6.47;1.20;;;;;;;13.34;33.05;102527.34;1747485;78;21081;-55
2021/10/07 10:52:37;;;;;;;4.03;1.07;;;;;;;13.37;32.00;102540.39;1768685;78;21121;-55
2021/10/07 10:55:17;;;;;;;3.17;1.10;;;;;;;13.41;31.58;102531.80;1768267;78;21156;-56
2021/10/07 10:57:47;;;;;;;4.85;1.40;;;;;;;13.45;31.56;102532.00;1773917;78;21080;-56
2021/10/07 11:00:29;;;;;;;8.48;1.75;;;;;;;13.48;32.01;102526.53;1771424;78;21121;-56
2021/10/07 11:03:14;;;;;;;4.50;1.27;;;;;;;13.50;31.91;102524.20;1770303;78;21439;-55
2021/10/07 11:06:09;;;;;;;5.57;1.07;;;;;;;13.57;31.34;102529.98;1769865;78;21513;-57
2021/10/07 11:08:47;;;;;;;4.72;1.52;;;;;;;13.61;31.96;102528.00;1770109;78;21287;-55
2021/10/07 11:11:35;;;;;;;5.03;1.37;;;;;;;13.67;31.56;102526.33;1754336;78;21110;-55
2021/10/07 11:13:58;;;;;;;5.83;1.90;;;;;;;13.71;31.12;102525.19;1772395;78;21494;-55
2021/10/07 11:16:27;;;;;;;4.95;1.98;;;;;;;13.75;30.99;102525.37;1774177;78;21010;-55
2021/10/07 11:18:53;;;;;;;4.37;1.40;;;;;;;13.79;31.21;102534.85;1767793;78;21058;-56
2021/10/07 11:21:22;;;;;;;5.58;1.30;;;;;;;13.87;31.05;102526.44;1734042;80;21406;-56
2021/10/07 11:23:52;;;;;;;6.60;1.50;;;;;;;13.94;30.82;102528.64;1690515;81;21032;-55
2021/10/07 11:26:31;;;;;;;4.37;1.20;;;;;;;14.00;30.06;102523.91;1704641;81;21097;-58
2021/10/07 11:28:58;;;;;;;6.92;1.47;;;;;;;14.06;30.63;102523.55;1756637;79;21082;-56
2021/10/07 11:31:28;;;;;;;6.40;1.92;;;;;;;14.13;31.32;102527.52;1759609;79;21009;-57
2021/10/07 11:34:00;;;;;;;4.42;1.25;;;;;;;14.20;30.73;102528.00;1732153;80;21035;-55
2021/10/07 11:36:29;;;;;;;3.60;0.90;;;;;;;14.27;30.44;102524.02;1734834;80;21142;-55
2021/10/07 11:38:55;;;;;;;4.08;1.12;;;;;;;14.34;29.82;102521.84;1755338;79;21015;-55
2021/10/07 11:41:28;;;;;;;5.08;1.37;;;;;;;14.37;29.60;102515.04;1760011;79;21093;-55
2021/10/07 11:43:52;;;;;;;5.35;1.60;;;;;;;14.41;29.28;102505.97;1753481;79;21621;-55